Time;durP1;ratioP1;P1;durP2;ratioP2;P2;SDS_P1;SDS_P2;PMS_P1;PMS_P2;Temp;Humidity;BMP_temperature;BMP_pressure;BME280_temperature;BME280_humidity;BME280_pressure;Samples;Min_cycle;Max_cycle;Signal;HPM_P1;HPM_P2
2023/05/29 00:00:37;;;;;;;13.07;5.72;;;;;;;;;;5011877;28;20095;-72
2023/05/29 00:03:04;;;;;;;12.95;5.90;;;;;;;;;;5029826;28;20038;-73
2023/05/29 00:05:30;;;;;;;13.32;6.55;;;;;;;;;;5028569;28;20061;-72
2023/05/29 00:07:56;;;;;;;13.13;6.55;;;;;;;;;;5037785;28;20033;-73
2023/05/29 00:10:21;;;;;;;13.07;6.22;;;;;;;;;;5029035;28;20025;-72
2023/05/29 00:12:46;;;;;;;12.45;6.47;;;;;;;;;;5027043;28;20033;-72
2023/05/29 00:15:12;;;;;;;12.20;4.82;;;;;;;;;;5027549;28;20034;-72
2023/05/29 00:17:39;;;;;;;18.23;6.32;;;;;;;;;;5019868;28;20030;-72
2023/05/29 00:20:11;;;;;;;15.75;5.68;;;;;;;;;;5017843;28;20033;-72
2023/05/29 00:22:37;;;;;;;13.43;6.30;;;;;;;;;;5017765;28;20037;-73
2023/05/29 00:25:06;;;;;;;13.95;5.65;;;;;;;;;;5026241;28;20052;-72
2023/05/29 00:27:32;;;;;;;14.32;6.20;;;;;;;;;;5026816;28;20029;-72
2023/05/29 00:29:58;;;;;;;11.07;5.32;;;;;;;;;;5021950;28;20029;-72
2023/05/29 00:32:23;;;;;;;13.57;6.05;;;;;;;;;;5018605;28;20036;-72
2023/05/29 00:34:50;;;;;;;14.18;6.18;;;;;;;;;;5020497;28;20033;-72
2023/05/29 00:37:15;;;;;;;17.85;6.22;;;;;;;;;;5027104;28;20025;-73
2023/05/29 00:39:40;;;;;;;18.70;5.53;;;;;;;;;;5024865;28;20037;-73
2023/05/29 00:42:06;;;;;;;14.80;5.80;;;;;;;;;;5026803;28;20041;-73
2023/05/29 00:44:31;;;;;;;12.35;6.25;;;;;;;;;;5026365;28;20277;-73
2023/05/29 00:46:58;;;;;;;15.23;5.60;;;;;;;;;;5025928;28;20026;-72
2023/05/29 00:49:24;;;;;;;12.43;5.85;;;;;;;;;;5020735;28;20084;-73
2023/05/29 00:51:51;;;;;;;15.13;6.25;;;;;;;;;;5025433;28;20042;-72
2023/05/29 00:54:21;;;;;;;14.35;6.15;;;;;;;;;;5023031;28;20034;-72
2023/05/29 00:56:47;;;;;;;19.35;6.60;;;;;;;;;;5022867;28;20095;-72
2023/05/29 00:59:12;;;;;;;14.68;6.63;;;;;;;;;;5020594;28;20065;-72
2023/05/29 01:01:39;;;;;;;17.40;6.28;;;;;;;;;;5023216;28;20057;-72
2023/05/29 01:04:08;;;;;;;15.68;6.85;;;;;;;;;;5025360;28;20021;-72
2023/05/29 01:06:34;;;;;;;18.20;6.20;;;;;;;;;;5026252;28;20061;-72
2023/05/29 01:09:00;;;;;;;13.20;5.85;;;;;;;;;;5026335;28;20075;-72
2023/05/29 01:11:39;;;;;;;11.38;5.60;;;;;;;;;;5024436;28;20727;-72
2023/05/29 01:14:09;;;;;;;17.60;6.60;;;;;;;;;;5026012;28;20083;-72
2023/05/29 01:16:47;;;;;;;18.27;6.40;;;;;;;;;;5026518;28;20021;-72
2023/05/29 01:19:52;;;;;;;14.43;6.28;;;;;;;;;;5025327;28;20030;-72
2023/05/29 01:22:34;;;;;;;15.32;5.95;;;;;;;;;;5024559;28;20116;-72
2023/05/29 01:25:29;;;;;;;16.20;5.47;;;;;;;;;;5025686;28;20408;-72
2023/05/29 01:27:55;;;;;;;16.90;5.88;;;;;;;;;;5028324;28;20065;-72
2023/05/29 01:30:23;;;;;;;14.48;5.93;;;;;;;;;;5037780;28;20033;-72
2023/05/29 01:32:48;;;;;;;14.23;5.85;;;;;;;;;;5027902;28;20060;-72
2023/05/29 01:35:13;;;;;;;11.45;5.70;;;;;;;;;;5025623;28;20499;-72
2023/05/29 01:37:39;;;;;;;12.18;5.88;;;;;;;;;;5025565;28;20033;-72
2023/05/29 01:40:05;;;;;;;13.43;5.82;;;;;;;;;;5015765;28;20033;-72
2023/05/29 01:42:31;;;;;;;16.58;6.22;;;;;;;;;;5004273;28;20548;-72
2023/05/29 01:44:57;;;;;;;15.40;6.38;;;;;;;;;;5015172;28;20131;-72
2023/05/29 01:47:23;;;;;;;11.63;5.43;;;;;;;;;;5016827;28;20037;-72
2023/05/29 01:49:51;;;;;;;11.70;5.28;;;;;;;;;;5023635;28;20033;-72
2023/05/29 01:52:17;;;;;;;14.18;5.30;;;;;;;;;;5008690;28;20131;-72
2023/05/29 01:54:43;;;;;;;11.27;5.80;;;;;;;;;;5023411;28;20029;-72
2023/05/29 01:57:09;;;;;;;13.63;5.65;;;;;;;;;;5025530;28;20037;-72
2023/05/29 01:59:35;;;;;;;14.88;5.93;;;;;;;;;;5023810;28;20041;-72
2023/05/29 02:02:08;;;;;;;15.05;5.30;;;;;;;;;;5023245;28;20056;-72
2023/05/29 02:04:33;;;;;;;10.50;6.13;;;;;;;;;;5022728;28;20025;-72
2023/05/29 02:06:59;;;;;;;9.25;5.07;;;;;;;;;;5025168;28;20536;-72
2023/05/29 02:09:25;;;;;;;10.90;5.63;;;;;;;;;;5025311;28;20055;-72
2023/05/29 02:11:50;;;;;;;17.33;6.05;;;;;;;;;;5024665;28;20147;-72
2023/05/29 02:14:15;;;;;;;15.90;5.00;;;;;;;;;;5025423;28;20499;-72
2023/05/29 02:16:41;;;;;;;12.93;5.47;;;;;;;;;;5019137;28;20609;-72
2023/05/29 02:19:06;;;;;;;14.30;5.03;;;;;;;;;;5018840;28;20025;-72
2023/05/29 02:21:32;;;;;;;13.73;6.45;;;;;;;;;;5018588;28;20519;-72
2023/05/29 02:23:57;;;;;;;13.60;5.18;;;;;;;;;;5024536;28;20529;-72
2023/05/29 02:26:22;;;;;;;12.00;5.13;;;;;;;;;;5016615;28;20053;-72
2023/05/29 02:28:48;;;;;;;11.68;5.80;;;;;;;;;;5012934;28;20060;-72
2023/05/29 02:31:13;;;;;;;16.67;6.00;;;;;;;;;;5012204;28;20124;-72
2023/05/29 02:33:38;;;;;;;13.85;5.60;;;;;;;;;;5022863;28;20073;-72
2023/05/29 02:36:04;;;;;;;13.90;5.70;;;;;;;;;;5023597;28;20025;-72
2023/05/29 02:38:29;;;;;;;14.38;6.00;;;;;;;;;;5016468;28;20049;-72
2023/05/29 02:40:54;;;;;;;11.70;5.38;;;;;;;;;;5025438;28;20034;-72
2023/05/29 02:43:21;;;;;;;14.18;6.30;;;;;;;;;;5022874;28;20398;-72
2023/05/29 02:45:46;;;;;;;12.32;5.85;;;;;;;;;;5016457;28;20065;-72
2023/05/29 02:48:12;;;;;;;15.00;6.20;;;;;;;;;;5002823;28;20058;-72
2023/05/29 02:50:37;;;;;;;15.55;5.90;;;;;;;;;;5023168;28;20030;-72
2023/05/29 02:53:02;;;;;;;11.50;5.30;;;;;;;;;;5026044;28;20463;-72
2023/05/29 02:55:28;;;;;;;13.88;5.68;;;;;;;;;;5032258;28;20032;-72
2023/05/29 02:57:55;;;;;;;14.82;5.18;;;;;;;;;;5026291;28;20581;-72
2023/05/29 03:00:20;;;;;;;10.80;5.13;;;;;;;;;;5024673;28;20041;-72
2023/05/29 03:02:46;;;;;;;13.60;5.70;;;;;;;;;;5018647;28;20103;-72
2023/05/29 03:05:12;;;;;;;9.70;5.43;;;;;;;;;;5016270;28;20052;-72
2023/05/29 03:07:37;;;;;;;13.60;5.90;;;;;;;;;;5021071;28;20021;-72
2023/05/29 03:10:03;;;;;;;9.93;5.15;;;;;;;;;;5022653;28;20098;-72
2023/05/29 03:12:29;;;;;;;11.32;5.90;;;;;;;;;;5023728;28;20133;-72
2023/05/29 03:14:56;;;;;;;10.55;4.57;;;;;;;;;;5023849;28;20143;-72
2023/05/29 03:17:21;;;;;;;14.60;5.65;;;;;;;;;;5022781;28;20598;-72
2023/05/29 03:19:47;;;;;;;19.33;6.47;;;;;;;;;;5017712;28;20052;-72
2023/05/29 03:22:12;;;;;;;15.88;6.00;;;;;;;;;;5024118;28;20450;-72
2023/05/29 03:24:38;;;;;;;12.13;5.80;;;;;;;;;;5022594;28;20577;-72
2023/05/29 03:27:03;;;;;;;14.05;5.63;;;;;;;;;;5023677;28;20485;-72
2023/05/29 03:29:31;;;;;;;14.18;5.90;;;;;;;;;;5023733;28;20033;-72
2023/05/29 03:31:56;;;;;;;12.88;5.22;;;;;;;;;;5023689;28;20039;-72
2023/05/29 03:34:21;;;;;;;12.07;5.43;;;;;;;;;;5023999;28;20480;-72
2023/05/29 03:36:47;;;;;;;12.45;4.97;;;;;;;;;;5021912;28;20091;-72
2023/05/29 03:39:12;;;;;;;15.52;5.45;;;;;;;;;;5010270;28;20046;-72
2023/05/29 03:41:38;;;;;;;11.18;5.07;;;;;;;;;;5023263;28;20030;-72
2023/05/29 03:44:04;;;;;;;13.63;5.10;;;;;;;;;;5023966;28;20033;-72
2023/05/29 03:46:31;;;;;;;10.18;4.95;;;;;;;;;;5023386;28;20075;-72
2023/05/29 03:48:56;;;;;;;12.52;5.22;;;;;;;;;;5023543;28;20056;-72
2023/05/29 03:51:22;;;;;;;11.45;5.00;;;;;;;;;;5023100;28;20088;-72
2023/05/29 03:53:47;;;;;;;13.65;5.28;;;;;;;;;;5023463;28;20076;-72
2023/05/29 03:56:12;;;;;;;8.95;4.57;;;;;;;;;;5022125;28;20033;-72
2023/05/29 03:58:38;;;;;;;10.32;4.55;;;;;;;;;;5022856;28;20109;-72
2023/05/29 04:01:03;;;;;;;13.13;4.20;;;;;;;;;;5022981;28;20084;-72
2023/05/29 04:03:29;;;;;;;10.52;3.85;;;;;;;;;;5016992;28;20470;-72
2023/05/29 04:05:55;;;;;;;10.07;4.15;;;;;;;;;;5021764;28;20029;-72
2023/05/29 04:08:21;;;;;;;8.23;3.40;;;;;;;;;;5023800;28;20612;-72
2023/05/29 04:10:46;;;;;;;9.70;3.28;;;;;;;;;;5023891;28;20036;-72
2023/05/29 04:13:11;;;;;;;11.73;3.22;;;;;;;;;;5025764;28;20025;-72
2023/05/29 04:15:37;;;;;;;10.05;3.60;;;;;;;;;;5022982;28;20029;-72
2023/05/29 04:18:03;;;;;;;12.38;3.58;;;;;;;;;;5033243;28;20029;-72
2023/05/29 04:20:28;;;;;;;13.43;3.35;;;;;;;;;;5023128;28;20083;-72
2023/05/29 04:22:54;;;;;;;8.13;2.85;;;;;;;;;;5023391;28;20051;-72
2023/05/29 04:25:19;;;;;;;11.88;3.40;;;;;;;;;;5023877;28;20040;-72
2023/05/29 04:27:48;;;;;;;12.43;3.38;;;;;;;;;;5023377;28;20353;-72
2023/05/29 04:30:14;;;;;;;9.48;2.83;;;;;;;;;;5024123;28;20040;-72
2023/05/29 04:32:40;;;;;;;7.60;3.28;;;;;;;;;;5024639;28;20029;-72
2023/05/29 04:35:05;;;;;;;10.15;3.35;;;;;;;;;;5018669;28;20029;-72
2023/05/29 04:37:37;;;;;;;7.85;2.38;;;;;;;;;;5022039;28;20703;-72
2023/05/29 04:40:10;;;;;;;8.70;3.25;;;;;;;;;;5013221;28;20045;-72
2023/05/29 04:42:36;;;;;;;9.25;2.15;;;;;;;;;;5026036;28;20563;-72
2023/05/29 04:45:03;;;;;;;10.45;2.95;;;;;;;;;;5026773;28;20094;-72
2023/05/29 04:47:29;;;;;;;6.20;2.67;;;;;;;;;;5027120;28;20539;-72
2023/05/29 04:49:54;;;;;;;15.30;2.90;;;;;;;;;;5026225;28;20120;-72
2023/05/29 04:52:21;;;;;;;7.20;2.28;;;;;;;;;;5025268;28;20108;-72
2023/05/29 04:54:46;;;;;;;11.38;2.33;;;;;;;;;;5025895;28;20036;-72
2023/05/29 04:57:11;;;;;;;11.18;3.20;;;;;;;;;;5026600;28;20072;-72
2023/05/29 04:59:37;;;;;;;10.55;3.15;;;;;;;;;;5026668;28;20037;-72
2023/05/29 05:02:02;;;;;;;11.70;2.58;;;;;;;;;;5025696;28;20584;-72
2023/05/29 05:04:28;;;;;;;8.35;2.67;;;;;;;;;;5026688;28;20022;-72
2023/05/29 05:06:53;;;;;;;9.43;2.10;;;;;;;;;;5026838;28;20446;-72
2023/05/29 05:09:18;;;;;;;10.18;2.38;;;;;;;;;;5024634;28;20049;-72
2023/05/29 05:11:44;;;;;;;9.32;2.80;;;;;;;;;;5024705;28;20539;-72
2023/05/29 05:14:09;;;;;;;10.35;1.90;;;;;;;;;;5019294;28;20045;-72
2023/05/29 05:16:34;;;;;;;6.95;2.42;;;;;;;;;;5024876;28;20574;-72
2023/05/29 05:19:00;;;;;;;6.88;2.45;;;;;;;;;;5026525;28;20022;-72
2023/05/29 05:21:25;;;;;;;5.97;2.65;;;;;;;;;;5026132;28;20457;-72
2023/05/29 05:23:50;;;;;;;10.45;2.20;;;;;;;;;;5026651;28;20499;-72
2023/05/29 05:26:16;;;;;;;10.70;2.50;;;;;;;;;;5023346;28;20074;-72
2023/05/29 05:28:41;;;;;;;6.82;2.20;;;;;;;;;;5013026;28;20128;-72
2023/05/29 05:31:07;;;;;;;5.63;2.10;;;;;;;;;;5018752;28;20025;-72
2023/05/29 05:33:32;;;;;;;11.15;2.53;;;;;;;;;;5022270;28;20518;-73
2023/05/29 05:35:58;;;;;;;12.02;3.60;;;;;;;;;;5026500;28;20030;-73
2023/05/29 05:38:23;;;;;;;6.90;2.10;;;;;;;;;;5025826;28;20042;-72
2023/05/29 05:40:48;;;;;;;9.43;2.30;;;;;;;;;;5032594;28;20037;-72
2023/05/29 05:43:14;;;;;;;6.97;1.85;;;;;;;;;;5026885;28;20192;-72
2023/05/29 05:45:42;;;;;;;10.82;2.20;;;;;;;;;;5022477;28;20030;-72
2023/05/29 05:48:08;;;;;;;9.30;2.28;;;;;;;;;;5014353;28;20045;-72
2023/05/29 05:50:33;;;;;;;8.95;2.63;;;;;;;;;;5022381;28;20029;-72
2023/05/29 05:52:58;;;;;;;7.88;2.42;;;;;;;;;;5023129;28;20063;-72
2023/05/29 05:55:26;;;;;;;9.20;2.33;;;;;;;;;;5022387;28;20021;-72
2023/05/29 05:57:51;;;;;;;7.82;2.25;;;;;;;;;;5021294;28;20037;-72
2023/05/29 06:00:17;;;;;;;8.07;2.20;;;;;;;;;;5024760;28;20111;-73
2023/05/29 06:02:44;;;;;;;8.18;2.03;;;;;;;;;;5022676;28;20037;-72
2023/05/29 06:05:11;;;;;;;10.88;2.35;;;;;;;;;;5022022;28;20045;-72
2023/05/29 06:07:36;;;;;;;6.32;2.08;;;;;;;;;;5021836;28;20037;-72
2023/05/29 06:10:03;;;;;;;11.57;2.40;;;;;;;;;;5023126;28;20029;-72
2023/05/29 06:12:29;;;;;;;10.10;2.70;;;;;;;;;;5014844;28;20042;-72
2023/05/29 06:14:55;;;;;;;6.93;2.47;;;;;;;;;;5017891;28;20038;-72
2023/05/29 06:17:21;;;;;;;9.23;2.15;;;;;;;;;;5016725;28;20103;-72
2023/05/29 06:19:46;;;;;;;12.68;2.33;;;;;;;;;;5021660;28;20514;-72
2023/05/29 06:22:12;;;;;;;7.00;2.00;;;;;;;;;;5021800;28;20033;-72
2023/05/29 06:24:37;;;;;;;5.88;1.90;;;;;;;;;;5020826;28;20128;-73
2023/05/29 06:27:02;;;;;;;7.10;2.45;;;;;;;;;;5018925;28;20029;-72
2023/05/29 06:29:28;;;;;;;7.32;2.10;;;;;;;;;;5024313;28;20033;-72
2023/05/29 06:31:53;;;;;;;4.53;2.05;;;;;;;;;;5012950;28;20033;-72
2023/05/29 06:34:19;;;;;;;9.60;2.63;;;;;;;;;;5019459;28;20513;-72
2023/05/29 06:36:44;;;;;;;11.25;1.95;;;;;;;;;;5015142;28;20038;-73
2023/05/29 06:39:10;;;;;;;6.88;2.33;;;;;;;;;;5017144;28;20041;-72
2023/05/29 06:41:35;;;;;;;6.70;2.10;;;;;;;;;;5011155;28;20033;-73
2023/05/29 06:44:00;;;;;;;5.95;2.20;;;;;;;;;;5018265;28;20670;-72
2023/05/29 06:46:26;;;;;;;9.45;2.42;;;;;;;;;;5017258;28;20029;-72
2023/05/29 06:48:51;;;;;;;9.25;2.45;;;;;;;;;;5019918;28;20041;-72
2023/05/29 06:51:17;;;;;;;6.90;2.30;;;;;;;;;;5015985;28;20095;-72
2023/05/29 06:53:43;;;;;;;6.82;1.85;;;;;;;;;;5015627;28;20034;-72
2023/05/29 06:56:08;;;;;;;7.80;2.55;;;;;;;;;;5024681;28;20087;-73
2023/05/29 06:58:34;;;;;;;7.30;2.50;;;;;;;;;;5022599;28;20033;-72
2023/05/29 07:01:05;;;;;;;8.45;2.20;;;;;;;;;;5024714;28;20026;-72
2023/05/29 07:03:30;;;;;;;4.82;2.13;;;;;;;;;;5030481;28;20055;-72
2023/05/29 07:05:55;;;;;;;6.70;2.78;;;;;;;;;;5021895;28;20059;-72
2023/05/29 07:08:22;;;;;;;17.23;2.45;;;;;;;;;;5019477;28;20085;-72
2023/05/29 07:10:48;;;;;;;12.25;2.65;;;;;;;;;;5020137;28;20039;-72
2023/05/29 07:13:17;;;;;;;11.55;2.33;;;;;;;;;;5020780;28;20640;-72
2023/05/29 07:15:44;;;;;;;8.52;2.15;;;;;;;;;;5020645;28;20033;-72
2023/05/29 07:18:09;;;;;;;14.93;2.40;;;;;;;;;;5021650;28;20037;-73
2023/05/29 07:20:36;;;;;;;8.63;2.13;;;;;;;;;;5020526;28;20033;-72
2023/05/29 07:23:02;;;;;;;7.40;2.17;;;;;;;;;;5019295;28;20060;-72
2023/05/29 07:25:27;;;;;;;12.10;2.60;;;;;;;;;;5023147;28;20427;-72
2023/05/29 07:27:53;;;;;;;7.30;2.45;;;;;;;;;;5014597;28;20021;-72
2023/05/29 07:30:18;;;;;;;8.45;2.40;;;;;;;;;;5014831;28;20064;-72
2023/05/29 07:32:44;;;;;;;8.45;2.42;;;;;;;;;;5013309;28;20042;-72
2023/05/29 07:35:09;;;;;;;9.10;2.78;;;;;;;;;;5016928;28;20030;-72
2023/05/29 07:37:35;;;;;;;10.90;2.83;;;;;;;;;;5020692;28;20714;-72
2023/05/29 07:40:00;;;;;;;8.82;2.38;;;;;;;;;;5014234;28;20028;-72
2023/05/29 07:42:26;;;;;;;8.00;2.20;;;;;;;;;;5011742;28;20038;-72
2023/05/29 07:44:52;;;;;;;6.53;2.10;;;;;;;;;;5013385;28;20036;-72
2023/05/29 07:47:17;;;;;;;9.57;2.40;;;;;;;;;;5015124;28;20518;-72
2023/05/29 07:49:42;;;;;;;8.23;2.25;;;;;;;;;;5014518;28;20107;-72
2023/05/29 07:52:08;;;;;;;10.00;2.75;;;;;;;;;;5016520;28;20010;-72
2023/05/29 07:54:33;;;;;;;9.43;2.33;;;;;;;;;;5012064;28;20829;-72
2023/05/29 07:56:59;;;;;;;6.32;2.45;;;;;;;;;;5012583;28;20207;-72
2023/05/29 07:59:25;;;;;;;8.65;2.60;;;;;;;;;;5014975;28;20030;-72
2023/05/29 08:01:50;;;;;;;9.57;2.47;;;;;;;;;;5016948;28;20038;-72
2023/05/29 08:04:16;;;;;;;10.75;2.53;;;;;;;;;;5016103;28;20037;-72
2023/05/29 08:06:44;;;;;;;6.15;2.30;;;;;;;;;;5018788;28;20064;-72
2023/05/29 08:09:10;;;;;;;11.70;2.90;;;;;;;;;;5017136;28;20566;-72
2023/05/29 08:11:36;;;;;;;10.13;2.55;;;;;;;;;;5017114;28;20538;-73
2023/05/29 08:14:01;;;;;;;6.88;2.47;;;;;;;;;;5019191;28;20036;-72
2023/05/29 08:16:27;;;;;;;11.77;2.55;;;;;;;;;;5020808;28;20025;-72
2023/05/29 08:18:53;;;;;;;6.75;2.45;;;;;;;;;;5037536;28;20443;-72
2023/05/29 08:21:18;;;;;;;9.30;2.63;;;;;;;;;;5019065;28;20894;-72
2023/05/29 08:23:44;;;;;;;8.55;2.65;;;;;;;;;;5022178;28;20033;-72
2023/05/29 08:26:09;;;;;;;16.17;2.90;;;;;;;;;;5029117;28;20040;-72
2023/05/29 08:28:35;;;;;;;10.80;2.85;;;;;;;;;;5022790;28;20563;-72
2023/05/29 08:31:00;;;;;;;6.38;2.22;;;;;;;;;;5018010;28;20025;-72
2023/05/29 08:33:26;;;;;;;8.02;2.40;;;;;;;;;;5019410;28;20312;-72
2023/05/29 08:35:51;;;;;;;7.78;2.10;;;;;;;;;;5017797;28;20075;-72
2023/05/29 08:38:17;;;;;;;15.30;2.75;;;;;;;;;;5014667;28;20077;-72
2023/05/29 08:40:42;;;;;;;7.45;2.25;;;;;;;;;;5021629;28;20462;-72
2023/05/29 08:43:16;;;;;;;10.88;2.50;;;;;;;;;;5019380;28;20026;-72
2023/05/29 08:45:45;;;;;;;7.57;2.22;;;;;;;;;;5020068;28;20129;-72
2023/05/29 08:48:11;;;;;;;7.47;2.42;;;;;;;;;;5014887;28;20034;-72
2023/05/29 08:50:45;;;;;;;8.90;2.33;;;;;;;;;;5019752;28;20037;-72
2023/05/29 08:53:11;;;;;;;7.82;2.42;;;;;;;;;;5017609;28;20585;-72
2023/05/29 08:55:36;;;;;;;8.07;2.20;;;;;;;;;;5015908;28;20515;-72
2023/05/29 08:58:02;;;;;;;8.38;2.42;;;;;;;;;;5014817;28;20739;-72
2023/05/29 09:00:29;;;;;;;9.85;2.25;;;;;;;;;;5020441;28;20037;-72
2023/05/29 09:02:55;;;;;;;6.30;2.00;;;;;;;;;;5020741;28;20034;-72
2023/05/29 09:05:21;;;;;;;9.00;2.38;;;;;;;;;;5016340;28;20038;-72
2023/05/29 09:07:47;;;;;;;6.82;2.50;;;;;;;;;;5020310;28;20119;-72
2023/05/29 09:10:13;;;;;;;9.15;2.95;;;;;;;;;;5017147;28;20025;-72
2023/05/29 09:12:39;;;;;;;10.70;2.30;;;;;;;;;;5019014;28;20044;-72
2023/05/29 09:15:17;;;;;;;6.25;2.97;;;;;;;;;;5010578;28;20034;-72
2023/05/29 09:17:42;;;;;;;8.43;2.63;;;;;;;;;;5015184;28;20057;-72
2023/05/29 09:20:18;;;;;;;7.25;2.15;;;;;;;;;;5010479;28;20120;-72
2023/05/29 09:22:57;;;;;;;9.55;2.45;;;;;;;;;;5015165;28;20030;-72
2023/05/29 09:25:24;;;;;;;8.60;2.70;;;;;;;;;;5024396;28;20013;-72
2023/05/29 09:27:55;;;;;;;5.05;2.25;;;;;;;;;;5015550;28;20048;-72
2023/05/29 09:30:32;;;;;;;14.07;2.95;;;;;;;;;;5016990;28;20038;-72
2023/05/29 09:33:00;;;;;;;7.70;2.28;;;;;;;;;;5017748;28;20029;-72
2023/05/29 09:35:26;;;;;;;12.38;2.45;;;;;;;;;;5015854;28;20033;-72
2023/05/29 09:37:52;;;;;;;8.10;2.25;;;;;;;;;;5010365;28;20071;-72
2023/05/29 09:40:17;;;;;;;11.13;2.00;;;;;;;;;;5018962;28;20060;-72
2023/05/29 09:42:42;;;;;;;7.70;2.28;;;;;;;;;;5025009;28;20041;-72
2023/05/29 09:45:08;;;;;;;8.05;2.47;;;;;;;;;;5020256;28;20041;-72
2023/05/29 09:47:35;;;;;;;8.27;2.30;;;;;;;;;;5023630;28;20052;-72
2023/05/29 09:50:00;;;;;;;12.25;3.17;;;;;;;;;;5021831;28;21173;-72
2023/05/29 09:52:30;;;;;;;7.10;2.17;;;;;;;;;;5020400;28;20029;-72
2023/05/29 09:54:56;;;;;;;8.70;2.47;;;;;;;;;;5012708;28;20038;-72
2023/05/29 09:57:23;;;;;;;9.48;2.10;;;;;;;;;;5014167;28;20049;-72
2023/05/29 09:59:51;;;;;;;5.13;2.03;;;;;;;;;;5024486;28;20128;-72
2023/05/29 10:02:17;;;;;;;8.73;2.38;;;;;;;;;;5007892;28;20046;-73
2023/05/29 10:04:44;;;;;;;11.05;2.55;;;;;;;;;;5018755;28;20105;-73
2023/05/29 10:07:27;;;;;;;8.30;2.40;;;;;;;;;;5015905;28;20026;-72
2023/05/29 10:10:02;;;;;;;8.52;2.60;;;;;;;;;;5016943;28;20607;-72
2023/05/29 10:12:29;;;;;;;11.93;2.58;;;;;;;;;;5012801;28;20041;-72
2023/05/29 10:14:58;;;;;;;8.38;2.17;;;;;;;;;;5024854;28;20053;-72
2023/05/29 10:17:28;;;;;;;5.90;2.40;;;;;;;;;;5019306;28;20033;-72
2023/05/29 10:19:58;;;;;;;7.88;2.33;;;;;;;;;;5014970;28;20428;-72
2023/05/29 10:22:25;;;;;;;17.33;3.20;;;;;;;;;;5017546;28;20537;-72
2023/05/29 10:24:51;;;;;;;11.48;2.47;;;;;;;;;;5017906;28;20048;-72
2023/05/29 10:27:17;;;;;;;6.95;2.13;;;;;;;;;;5019460;28;20045;-72
2023/05/29 10:29:56;;;;;;;8.40;2.40;;;;;;;;;;5015364;28;20029;-72
2023/05/29 10:32:21;;;;;;;9.48;3.03;;;;;;;;;;5015861;28;20469;-72
2023/05/29 10:35:15;;;;;;;10.45;2.58;;;;;;;;;;5020671;28;20057;-71
2023/05/29 10:38:09;;;;;;;7.35;2.10;;;;;;;;;;5014814;28;20045;-72
2023/05/29 10:40:34;;;;;;;6.13;2.45;;;;;;;;;;5015666;28;20029;-72
2023/05/29 10:43:00;;;;;;;10.27;2.50;;;;;;;;;;5017319;28;20399;-72
2023/05/29 10:45:31;;;;;;;13.80;3.03;;;;;;;;;;5012178;28;20042;-72
2023/05/29 10:48:12;;;;;;;9.52;2.47;;;;;;;;;;5016287;28;20049;-71
2023/05/29 10:50:41;;;;;;;9.90;2.47;;;;;;;;;;5015167;28;20088;-72
2023/05/29 10:53:14;;;;;;;7.85;2.25;;;;;;;;;;5016937;28;20124;-72
2023/05/29 10:55:40;;;;;;;14.75;3.17;;;;;;;;;;5017011;28;20072;-72
2023/05/29 10:58:12;;;;;;;8.95;2.55;;;;;;;;;;5024851;28;20017;-72
2023/05/29 11:00:41;;;;;;;7.50;2.28;;;;;;;;;;5020704;28;20041;-72
2023/05/29 11:03:08;;;;;;;8.43;3.40;;;;;;;;;;5019609;28;20477;-72
2023/05/29 11:05:33;;;;;;;6.28;2.17;;;;;;;;;;5019027;28;20054;-72
2023/05/29 11:08:03;;;;;;;6.28;2.65;;;;;;;;;;5020325;28;20420;-72
2023/05/29 11:10:47;;;;;;;11.38;2.47;;;;;;;;;;5023433;28;20029;-72
2023/05/29 11:13:55;;;;;;;7.95;2.00;;;;;;;;;;5026645;28;20021;-72
2023/05/29 11:16:29;;;;;;;9.02;2.83;;;;;;;;;;5015845;28;20076;-72
2023/05/29 11:18:55;;;;;;;9.48;2.38;;;;;;;;;;5015502;28;20045;-72
2023/05/29 11:21:52;;;;;;;7.65;2.40;;;;;;;;;;5014580;28;20176;-72
2023/05/29 11:24:27;;;;;;;7.07;2.70;;;;;;;;;;5012619;28;20554;-72
2023/05/29 11:26:54;;;;;;;8.27;2.20;;;;;;;;;;5016079;28;20581;-72
2023/05/29 11:29:29;;;;;;;7.85;2.55;;;;;;;;;;5014864;28;20558;-72
2023/05/29 11:32:03;;;;;;;23.92;2.75;;;;;;;;;;5012650;28;20037;-72
2023/05/29 11:34:30;;;;;;;9.30;2.28;;;;;;;;;;5015117;28;20056;-72
2023/05/29 11:36:59;;;;;;;5.40;2.30;;;;;;;;;;5018734;28;20680;-72
2023/05/29 11:39:26;;;;;;;9.73;2.63;;;;;;;;;;5016114;28;20869;-72
2023/05/29 11:41:52;;;;;;;5.03;2.13;;;;;;;;;;5009575;28;20249;-72
2023/05/29 11:44:18;;;;;;;10.07;2.53;;;;;;;;;;5015430;28;20149;-72
2023/05/29 11:46:44;;;;;;;7.50;2.45;;;;;;;;;;5016022;28;20017;-72
2023/05/29 11:49:09;;;;;;;5.78;2.17;;;;;;;;;;5019773;28;20018;-72
2023/05/29 11:51:35;;;;;;;9.45;2.65;;;;;;;;;;5021940;28;20613;-72
2023/05/29 11:54:00;;;;;;;11.88;2.60;;;;;;;;;;5011484;28;20057;-72
2023/05/29 11:56:26;;;;;;;7.95;2.25;;;;;;;;;;5016692;28;20064;-72
2023/05/29 11:58:56;;;;;;;7.53;2.67;;;;;;;;;;5010803;28;20059;-72
2023/05/29 12:01:23;;;;;;;8.15;2.30;;;;;;;;;;5018805;28;20110;-72
2023/05/29 12:03:49;;;;;;;9.93;2.45;;;;;;;;;;5014879;28;20064;-73
2023/05/29 12:06:14;;;;;;;6.22;2.28;;;;;;;;;;5016359;28;20095;-72
2023/05/29 12:08:40;;;;;;;8.95;2.63;;;;;;;;;;5016806;28;20033;-72
2023/05/29 12:11:05;;;;;;;6.03;2.15;;;;;;;;;;5016547;28;20503;-72
2023/05/29 12:13:31;;;;;;;9.75;2.38;;;;;;;;;;5012799;28;20489;-73
2023/05/29 12:16:00;;;;;;;6.28;2.03;;;;;;;;;;5014923;28;20507;-72
2023/05/29 12:18:26;;;;;;;7.82;2.30;;;;;;;;;;5007197;28;20155;-72
2023/05/29 12:21:02;;;;;;;6.35;2.75;;;;;;;;;;5005797;28;20568;-72
2023/05/29 12:23:30;;;;;;;8.95;2.72;;;;;;;;;;5022247;28;20033;-73
2023/05/29 12:25:57;;;;;;;8.00;2.60;;;;;;;;;;5023904;28;20045;-72
2023/05/29 12:28:23;;;;;;;6.63;2.25;;;;;;;;;;5019638;28;20051;-72
2023/05/29 12:30:51;;;;;;;7.22;2.20;;;;;;;;;;5019053;28;21668;-72
2023/05/29 12:33:28;;;;;;;7.05;2.25;;;;;;;;;;5028035;28;20041;-72
2023/05/29 12:35:54;;;;;;;7.63;2.28;;;;;;;;;;5031736;28;20036;-72
2023/05/29 12:38:20;;;;;;;9.68;2.15;;;;;;;;;;5022781;28;20049;-72
2023/05/29 12:40:49;;;;;;;5.57;2.20;;;;;;;;;;5022729;28;20112;-72
2023/05/29 12:43:16;;;;;;;11.45;2.35;;;;;;;;;;5013923;28;20038;-72
2023/05/29 12:45:41;;;;;;;6.05;2.55;;;;;;;;;;5022979;28;20594;-72
2023/05/29 12:48:07;;;;;;;10.20;2.92;;;;;;;;;;5022548;28;20129;-72
2023/05/29 12:50:38;;;;;;;12.85;2.53;;;;;;;;;;5023444;28;20525;-72
2023/05/29 12:53:12;;;;;;;9.55;2.30;;;;;;;;;;5025541;28;20039;-72
2023/05/29 12:55:39;;;;;;;8.70;2.58;;;;;;;;;;5020733;28;20029;-72
2023/05/29 12:58:05;;;;;;;8.95;2.35;;;;;;;;;;5023765;28;20555;-72
2023/05/29 13:00:33;;;;;;;4.75;1.85;;;;;;;;;;5014782;28;20040;-72
2023/05/29 13:02:58;;;;;;;6.13;1.90;;;;;;;;;;5020182;28;20056;-72
2023/05/29 13:05:24;;;;;;;9.45;2.60;;;;;;;;;;5019245;28;20042;-72
2023/05/29 13:07:50;;;;;;;5.45;2.10;;;;;;;;;;5015664;28;20639;-72
2023/05/29 13:10:16;;;;;;;10.95;2.33;;;;;;;;;;5020534;28;20023;-72
2023/05/29 13:12:41;;;;;;;6.13;2.22;;;;;;;;;;5015557;28;20132;-72
2023/05/29 13:15:07;;;;;;;5.93;2.53;;;;;;;;;;5016091;28;20590;-72
2023/05/29 13:17:33;;;;;;;6.53;2.20;;;;;;;;;;5017438;28;20030;-72
2023/05/29 13:19:59;;;;;;;6.60;2.30;;;;;;;;;;5019483;28;20635;-72
2023/05/29 13:22:30;;;;;;;7.70;2.00;;;;;;;;;;5015950;28;20017;-72
2023/05/29 13:24:59;;;;;;;6.75;2.20;;;;;;;;;;5008604;28;20112;-72
2023/05/29 13:27:25;;;;;;;8.57;3.15;;;;;;;;;;5024296;28;20045;-72
2023/05/29 13:29:51;;;;;;;5.07;1.95;;;;;;;;;;5025516;28;20037;-72
2023/05/29 13:32:16;;;;;;;6.93;2.40;;;;;;;;;;5022487;28;20052;-72
2023/05/29 13:34:42;;;;;;;7.75;2.42;;;;;;;;;;5018214;28;20079;-72
2023/05/29 13:37:07;;;;;;;4.65;2.10;;;;;;;;;;5020500;28;20028;-72
2023/05/29 13:39:33;;;;;;;7.53;2.10;;;;;;;;;;5017350;28;20038;-72
2023/05/29 13:41:58;;;;;;;12.48;2.35;;;;;;;;;;5021506;28;20041;-72
2023/05/29 13:44:23;;;;;;;6.72;2.47;;;;;;;;;;5021552;28;20033;-72
2023/05/29 13:46:48;;;;;;;7.95;2.17;;;;;;;;;;5022284;28;20037;-72
2023/05/29 13:49:14;;;;;;;8.68;2.15;;;;;;;;;;5015307;28;20034;-72
2023/05/29 13:51:39;;;;;;;6.35;2.17;;;;;;;;;;5015780;28;20578;-72
2023/05/29 13:54:04;;;;;;;5.90;2.10;;;;;;;;;;5019057;28;20029;-72
2023/05/29 13:56:30;;;;;;;7.57;2.30;;;;;;;;;;5030032;28;20514;-73
2023/05/29 13:58:55;;;;;;;9.90;2.65;;;;;;;;;;5027628;28;20033;-73
2023/05/29 14:01:21;;;;;;;4.70;2.00;;;;;;;;;;5024931;28;20021;-73
2023/05/29 14:03:47;;;;;;;5.80;2.08;;;;;;;;;;5018494;28;20116;-73
2023/05/29 14:06:12;;;;;;;6.75;2.40;;;;;;;;;;5015896;28;20666;-72
2023/05/29 14:08:37;;;;;;;5.90;2.42;;;;;;;;;;5016023;28;20130;-73
2023/05/29 14:11:03;;;;;;;5.68;2.00;;;;;;;;;;5015360;28;20040;-73
2023/05/29 14:13:28;;;;;;;4.97;2.10;;;;;;;;;;5016280;28;20040;-73
2023/05/29 14:15:55;;;;;;;5.18;2.38;;;;;;;;;;5019533;28;20024;-73
2023/05/29 14:18:21;;;;;;;9.13;2.60;;;;;;;;;;5014378;28;20044;-73
2023/05/29 14:20:48;;;;;;;6.82;2.80;;;;;;;;;;5022710;28;20029;-73
2023/05/29 14:23:15;;;;;;;6.63;2.38;;;;;;;;;;5015059;28;20049;-73
2023/05/29 14:25:41;;;;;;;7.82;2.95;;;;;;;;;;5018389;28;20574;-73
2023/05/29 14:28:07;;;;;;;5.55;2.28;;;;;;;;;;5017006;28;20024;-73
2023/05/29 14:30:32;;;;;;;3.85;2.08;;;;;;;;;;5014433;28;20041;-72
2023/05/29 14:32:58;;;;;;;9.35;2.80;;;;;;;;;;5013438;28;20073;-73
2023/05/29 14:35:23;;;;;;;7.10;2.40;;;;;;;;;;5016145;28;20033;-73
2023/05/29 14:37:49;;;;;;;7.60;2.83;;;;;;;;;;5017414;28;20034;-73